Providence, Louisiana
Current Conditions -  °F | °C
As of 4:03 PM on Friday 19 Dec 2014 (Local Time) from KMSY Reporting Station
Light Rain Light Rain  
Wind Chill: 53°   Ceiling: 500
Heat Index: 53°   Visibility: 9mi
Dew Point: 51°   Wind: 14mph
Humidity: 93%   Direction: 40°NE
Pressure: 30.04"   Gusts: NA
Location:  29.991°N, 90.2553°W
Report Text: KMSY 192203Z 04012KT 9SM -RA OVC005 12/11 A3004 RMK AO2 P0001 T01170106
Loading
Personal Weather Stations






























Interactive Weather Map New forecast layout! Learn more

10-Day Weather Forecast

Advertisements
Track Severe Weather on mobile